createdAt,value
2022-07-29T00:00:01.266Z,20.20
2022-07-29T00:02:28.959Z,20.20
2022-07-29T00:04:55.969Z,20.10
2022-07-29T00:07:23.596Z,20.00
2022-07-29T00:09:52.545Z,20.00
2022-07-29T00:12:25.108Z,19.90
2022-07-29T00:14:53.371Z,19.90
2022-07-29T00:17:20.287Z,19.90
2022-07-29T00:19:48.109Z,19.80
2022-07-29T00:22:15.420Z,19.80
2022-07-29T00:24:42.406Z,19.80
2022-07-29T00:27:09.099Z,19.70
2022-07-29T00:29:36.303Z,19.60
2022-07-29T00:32:06.650Z,19.60
2022-07-29T00:34:52.481Z,19.60
2022-07-29T00:37:23.483Z,19.50
2022-07-29T00:39:51.441Z,19.40
2022-07-29T00:42:19.426Z,19.30
2022-07-29T00:44:46.223Z,19.30
2022-07-29T00:47:13.505Z,19.30
2022-07-29T00:49:41.633Z,19.20
2022-07-29T00:52:09.111Z,19.10
2022-07-29T00:54:37.149Z,19.10
2022-07-29T00:57:11.321Z,19.00
2022-07-29T00:59:38.337Z,19.00
2022-07-29T01:02:05.763Z,18.90
2022-07-29T01:04:33.054Z,18.80
2022-07-29T01:07:01.833Z,18.80
2022-07-29T01:09:40.796Z,18.70
2022-07-29T01:12:25.643Z,18.70
2022-07-29T01:14:55.820Z,18.60
2022-07-29T01:17:27.546Z,18.50
2022-07-29T01:19:54.967Z,18.50
2022-07-29T01:22:21.789Z,18.50
2022-07-29T01:25:10.865Z,18.50
2022-07-29T01:27:40.654Z,18.40
2022-07-29T01:30:09.808Z,18.40
2022-07-29T01:32:38.393Z,18.40
2022-07-29T01:35:19.854Z,18.30
2022-07-29T01:37:49.789Z,18.30
2022-07-29T01:40:21.497Z,18.20
2022-07-29T01:42:57.211Z,18.20
2022-07-29T01:45:30.288Z,18.10
2022-07-29T01:48:06.144Z,18.10
2022-07-29T01:50:41.405Z,18.10
2022-07-29T01:53:13.024Z,18.10
2022-07-29T01:55:43.005Z,18.00
2022-07-29T01:58:10.206Z,18.00
2022-07-29T02:00:38.082Z,18.00
2022-07-29T02:03:09.950Z,18.00
2022-07-29T02:05:38.800Z,18.00
2022-07-29T02:08:07.237Z,17.90
2022-07-29T02:10:34.711Z,17.90
2022-07-29T02:13:03.175Z,17.90
2022-07-29T02:15:31.850Z,17.90
2022-07-29T02:18:19.156Z,17.90
2022-07-29T02:20:47.916Z,17.90
2022-07-29T02:23:18.264Z,17.90
2022-07-29T02:25:45.630Z,17.80
2022-07-29T02:28:13.232Z,17.80
2022-07-29T02:30:41.656Z,17.80
2022-07-29T02:33:09.998Z,17.80
2022-07-29T02:35:39.671Z,17.70
2022-07-29T02:38:25.845Z,17.60
2022-07-29T02:40:54.637Z,17.60
2022-07-29T02:43:22.062Z,17.50
2022-07-29T02:45:54.969Z,17.40
2022-07-29T02:48:24.517Z,17.30
2022-07-29T02:50:55.413Z,17.30
2022-07-29T02:53:24.998Z,17.30
2022-07-29T02:55:57.440Z,17.20
2022-07-29T02:58:31.883Z,17.10
2022-07-29T03:01:02.567Z,17.10
2022-07-29T03:03:38.264Z,17.10
2022-07-29T03:06:06.386Z,17.00
2022-07-29T03:08:33.662Z,17.00
2022-07-29T03:11:01.633Z,17.00
2022-07-29T03:13:28.852Z,17.00
2022-07-29T03:15:56.699Z,17.00
2022-07-29T03:18:23.425Z,16.90
2022-07-29T03:20:51.746Z,16.90
2022-07-29T03:23:24.247Z,16.80
2022-07-29T03:25:51.496Z,16.80
2022-07-29T03:28:18.533Z,16.80
2022-07-29T03:30:53.066Z,16.70
2022-07-29T03:33:24.909Z,16.70
2022-07-29T03:35:54.248Z,16.70
2022-07-29T03:38:24.959Z,16.70
2022-07-29T03:41:10.122Z,16.70
2022-07-29T03:43:49.299Z,16.60
2022-07-29T03:46:21.752Z,16.60
2022-07-29T03:48:51.879Z,16.60
2022-07-29T03:51:19.970Z,16.60
2022-07-29T03:54:09.915Z,16.60
2022-07-29T03:56:40.821Z,16.60
2022-07-29T03:59:08.272Z,16.70
2022-07-29T04:01:36.057Z,16.70
2022-07-29T04:04:03.017Z,16.70
2022-07-29T04:06:29.981Z,16.70
2022-07-29T04:08:56.883Z,16.70
2022-07-29T04:11:23.632Z,16.80
2022-07-29T04:13:50.835Z,16.80
2022-07-29T04:16:17.893Z,16.90
2022-07-29T04:18:44.617Z,16.90
2022-07-29T04:21:13.744Z,17.00
2022-07-29T04:23:52.908Z,17.10
2022-07-29T04:26:22.212Z,17.10
2022-07-29T04:28:49.163Z,17.20
2022-07-29T04:31:17.491Z,17.30
2022-07-29T04:33:45.759Z,17.40
2022-07-29T04:36:28.753Z,17.40
2022-07-29T04:38:56.086Z,17.50
2022-07-29T04:41:23.294Z,17.60
2022-07-29T04:43:50.065Z,17.70
2022-07-29T04:46:17.241Z,17.70
2022-07-29T04:48:46.268Z,17.80
2022-07-29T04:51:13.698Z,18.00
2022-07-29T04:53:41.104Z,18.20
2022-07-29T04:56:08.091Z,18.30
2022-07-29T04:58:35.911Z,18.40
2022-07-29T05:01:03.737Z,18.50
2022-07-29T05:03:30.798Z,18.50
2022-07-29T05:05:58.856Z,18.50
2022-07-29T05:08:25.655Z,18.60
2022-07-29T05:10:52.520Z,18.60
2022-07-29T05:13:19.250Z,18.70
2022-07-29T05:15:46.249Z,18.70
2022-07-29T05:18:13.243Z,18.80
2022-07-29T05:20:39.963Z,18.80
2022-07-29T05:23:07.154Z,18.80
2022-07-29T05:25:43.521Z,18.90
2022-07-29T05:28:11.779Z,19.00
2022-07-29T05:30:38.853Z,19.00
2022-07-29T05:33:05.695Z,19.10
2022-07-29T05:35:40.271Z,19.10
2022-07-29T05:38:07.379Z,19.20
2022-07-29T05:40:35.119Z,19.30
2022-07-29T05:43:02.135Z,19.40
2022-07-29T05:45:29.313Z,19.40
2022-07-29T05:47:56.353Z,19.50
2022-07-29T05:50:23.493Z,19.70
2022-07-29T05:52:51.669Z,19.80
2022-07-29T05:55:18.409Z,20.00
2022-07-29T05:57:46.601Z,20.60
2022-07-29T06:00:13.749Z,21.40
2022-07-29T06:02:41.475Z,22.30
2022-07-29T06:05:10.621Z,23.00
2022-07-29T06:07:50.130Z,23.70
2022-07-29T06:10:20.300Z,24.40
2022-07-29T06:12:50.834Z,25.00
2022-07-29T06:15:17.838Z,25.30
2022-07-29T06:18:00.597Z,25.60
2022-07-29T06:20:30.707Z,25.80
2022-07-29T06:22:58.938Z,26.10
2022-07-29T06:25:25.998Z,26.20
2022-07-29T06:27:53.194Z,26.20
2022-07-29T06:30:20.221Z,26.30
2022-07-29T06:32:48.353Z,26.40
2022-07-29T06:35:39.237Z,26.60
2022-07-29T06:38:02.388Z,26.70
2022-07-29T06:40:49.462Z,26.70
2022-07-29T06:43:16.833Z,26.60
2022-07-29T06:45:44.137Z,26.40
2022-07-29T06:48:12.172Z,26.30
2022-07-29T06:50:41.192Z,26.10
2022-07-29T06:53:08.107Z,25.90
2022-07-29T06:55:34.936Z,25.60
2022-07-29T06:58:02.654Z,25.30
2022-07-29T07:00:29.552Z,25.20
2022-07-29T07:02:56.411Z,24.90
2022-07-29T07:05:23.685Z,24.80
2022-07-29T07:07:50.720Z,24.70
2022-07-29T07:10:17.494Z,24.60
2022-07-29T07:12:44.495Z,24.60
2022-07-29T07:15:11.454Z,24.50
2022-07-29T07:17:38.665Z,24.40
2022-07-29T07:20:06.998Z,24.50
2022-07-29T07:22:38.627Z,24.50
2022-07-29T07:25:05.966Z,24.70
2022-07-29T07:27:33.403Z,24.70
2022-07-29T07:30:00.514Z,24.80
2022-07-29T07:32:27.317Z,25.10
2022-07-29T07:34:54.742Z,25.30
2022-07-29T07:37:24.017Z,25.40
2022-07-29T07:39:50.703Z,25.30
2022-07-29T07:42:18.234Z,25.10
2022-07-29T07:45:11.993Z,24.90
2022-07-29T07:47:34.245Z,24.80
2022-07-29T07:50:01.734Z,24.80
2022-07-29T07:52:28.450Z,25.10
2022-07-29T07:54:55.581Z,25.50
2022-07-29T07:57:22.538Z,25.60
2022-07-29T07:59:49.224Z,26.10
2022-07-29T08:02:16.246Z,26.40
2022-07-29T08:04:45.400Z,26.80
2022-07-29T08:07:12.109Z,27.00
2022-07-29T08:09:39.197Z,27.20
2022-07-29T08:12:06.795Z,27.50
2022-07-29T08:14:34.291Z,27.60
2022-07-29T08:17:01.536Z,27.60
2022-07-29T08:19:28.570Z,27.70
2022-07-29T08:21:55.818Z,27.60
2022-07-29T08:24:41.739Z,27.50
2022-07-29T08:27:26.997Z,27.50
2022-07-29T08:29:57.082Z,27.40
2022-07-29T08:32:50.848Z,27.40
2022-07-29T08:35:11.173Z,27.80
2022-07-29T08:37:37.888Z,28.10
2022-07-29T08:40:04.817Z,28.40
2022-07-29T08:42:32.068Z,28.60
2022-07-29T08:44:59.318Z,28.60
2022-07-29T08:47:27.344Z,28.80
2022-07-29T08:49:54.275Z,28.90
2022-07-29T08:52:21.500Z,28.80
2022-07-29T08:54:48.583Z,28.80
2022-07-29T08:57:15.710Z,28.80
2022-07-29T08:59:47.489Z,28.90
2022-07-29T09:02:20.020Z,28.90
2022-07-29T09:04:49.430Z,29.00
2022-07-29T09:07:18.547Z,29.10
2022-07-29T09:09:45.991Z,29.10
2022-07-29T09:12:13.482Z,29.20
2022-07-29T09:14:56.752Z,29.30
2022-07-29T09:17:40.183Z,29.50
2022-07-29T09:20:11.253Z,29.70
2022-07-29T09:22:41.846Z,29.70
2022-07-29T09:25:09.483Z,29.70
2022-07-29T09:27:36.953Z,29.80
2022-07-29T09:30:15.423Z,29.80
2022-07-29T09:33:01.032Z,29.90
2022-07-29T09:35:37.313Z,30.10
2022-07-29T09:38:11.176Z,30.20
2022-07-29T09:40:40.474Z,30.40
2022-07-29T09:43:11.518Z,30.50
2022-07-29T09:45:39.107Z,30.60
2022-07-29T09:48:27.845Z,30.60
2022-07-29T09:51:01.212Z,30.30
2022-07-29T09:53:37.890Z,30.00
2022-07-29T09:56:06.211Z,29.80
2022-07-29T09:58:35.577Z,29.90
2022-07-29T10:01:06.219Z,30.10
2022-07-29T10:03:51.059Z,30.10
2022-07-29T10:06:17.862Z,30.20
2022-07-29T10:08:44.631Z,30.30
2022-07-29T10:11:15.776Z,30.50
2022-07-29T10:13:45.835Z,30.60
2022-07-29T10:16:14.000Z,30.50
2022-07-29T10:18:42.121Z,30.50
2022-07-29T10:21:09.401Z,30.60
2022-07-29T10:23:46.916Z,30.60
2022-07-29T10:26:15.618Z,30.50
2022-07-29T10:28:42.416Z,30.50
2022-07-29T10:31:12.935Z,30.50
2022-07-29T10:34:08.135Z,30.40
2022-07-29T10:36:57.290Z,30.50
2022-07-29T10:39:41.768Z,30.80
2022-07-29T10:42:19.867Z,30.80
2022-07-29T10:44:47.689Z,31.00
2022-07-29T10:47:26.173Z,30.90
2022-07-29T10:50:06.534Z,30.80
2022-07-29T10:52:53.875Z,30.90
2022-07-29T10:55:35.786Z,31.10
2022-07-29T10:58:12.500Z,31.10
2022-07-29T11:00:39.537Z,31.00
2022-07-29T11:05:59.606Z,30.80
2022-07-29T11:08:27.976Z,30.80
2022-07-29T11:11:17.410Z,30.90
2022-07-29T11:13:44.532Z,31.00
2022-07-29T11:16:13.798Z,31.20
2022-07-29T11:19:02.346Z,31.30
2022-07-29T11:21:53.562Z,31.20
2022-07-29T11:24:30.169Z,31.30
2022-07-29T11:27:13.976Z,31.30
2022-07-29T11:29:50.218Z,31.30
2022-07-29T11:32:23.131Z,31.30
2022-07-29T11:34:52.105Z,31.20
2022-07-29T11:37:27.591Z,31.20
2022-07-29T11:40:01.540Z,31.30
2022-07-29T11:42:34.269Z,31.30
2022-07-29T11:45:43.524Z,31.30
2022-07-29T11:48:31.370Z,31.60
2022-07-29T11:50:50.865Z,31.80
2022-07-29T11:53:18.825Z,31.80
2022-07-29T11:55:55.579Z,32.00
2022-07-29T11:58:25.260Z,31.90
2022-07-29T12:00:55.591Z,31.90
2022-07-29T12:03:34.797Z,31.90
2022-07-29T12:06:03.795Z,31.80
2022-07-29T12:08:30.706Z,31.90
2022-07-29T12:10:58.042Z,31.90
2022-07-29T12:13:37.557Z,31.80
2022-07-29T12:16:05.591Z,32.00
2022-07-29T12:18:32.781Z,32.10
2022-07-29T12:21:03.345Z,32.20
2022-07-29T12:23:34.943Z,32.00
2022-07-29T12:26:10.634Z,32.00
2022-07-29T12:28:49.224Z,31.90
2022-07-29T12:31:42.168Z,31.90
2022-07-29T12:34:08.253Z,31.90
2022-07-29T12:36:37.202Z,31.90
2022-07-29T12:39:04.722Z,32.00
2022-07-29T12:41:31.754Z,32.00
2022-07-29T12:43:58.938Z,31.90
2022-07-29T12:46:25.693Z,31.80
2022-07-29T12:48:57.474Z,31.60
2022-07-29T12:51:30.909Z,31.50
2022-07-29T12:54:08.730Z,31.60
2022-07-29T12:56:44.453Z,31.80
2022-07-29T12:59:12.775Z,31.80
2022-07-29T13:01:39.722Z,31.80
2022-07-29T13:04:07.545Z,31.70
2022-07-29T13:06:39.215Z,31.70
2022-07-29T13:09:11.282Z,31.50
2022-07-29T13:11:43.063Z,31.30
2022-07-29T13:14:15.495Z,31.20
2022-07-29T13:17:02.719Z,31.10
2022-07-29T13:19:41.828Z,31.00
2022-07-29T13:22:17.606Z,30.90
2022-07-29T13:25:06.006Z,30.70
2022-07-29T13:27:38.143Z,30.50
2022-07-29T13:30:06.691Z,30.60
2022-07-29T13:32:39.312Z,30.50
2022-07-29T13:35:08.255Z,30.40
2022-07-29T13:37:35.910Z,30.40
2022-07-29T13:40:04.183Z,30.40
2022-07-29T13:42:33.201Z,30.60
2022-07-29T13:45:05.056Z,30.60
2022-07-29T13:47:33.374Z,30.50
2022-07-29T13:50:00.902Z,30.60
2022-07-29T13:52:30.762Z,30.70
2022-07-29T13:54:57.784Z,30.70
2022-07-29T13:57:25.674Z,30.70
2022-07-29T13:59:55.042Z,30.70
2022-07-29T14:02:25.726Z,30.80
2022-07-29T14:04:55.139Z,30.80
2022-07-29T14:07:22.552Z,30.80
2022-07-29T14:09:49.326Z,30.80
2022-07-29T14:12:17.565Z,30.80
2022-07-29T14:14:44.743Z,30.70
2022-07-29T14:17:14.570Z,30.70
2022-07-29T14:19:41.684Z,30.60
2022-07-29T14:22:11.770Z,30.70
2022-07-29T14:24:39.570Z,30.80
2022-07-29T14:27:07.640Z,30.90
2022-07-29T14:29:37.030Z,31.00
2022-07-29T14:32:08.500Z,31.00
2022-07-29T14:34:38.506Z,31.00
2022-07-29T14:37:06.634Z,31.00
2022-07-29T14:39:36.122Z,30.90
2022-07-29T14:42:06.360Z,30.80
2022-07-29T14:44:33.898Z,30.60
2022-07-29T14:47:07.467Z,30.70
2022-07-29T14:49:37.185Z,30.80
2022-07-29T14:52:04.100Z,30.80
2022-07-29T14:54:31.014Z,30.90
2022-07-29T14:57:00.639Z,30.90
2022-07-29T14:59:29.549Z,30.80
2022-07-29T15:01:57.051Z,30.60
2022-07-29T15:04:24.067Z,30.40
2022-07-29T15:06:53.352Z,30.30
2022-07-29T15:09:20.362Z,30.30
2022-07-29T15:11:47.357Z,30.20
2022-07-29T15:14:14.287Z,30.10
2022-07-29T15:16:43.875Z,29.90
2022-07-29T15:19:13.491Z,29.80
2022-07-29T15:21:41.612Z,29.70
2022-07-29T15:24:23.392Z,29.50
2022-07-29T15:26:50.896Z,29.40
2022-07-29T15:29:18.769Z,29.40
2022-07-29T15:31:46.782Z,29.30
2022-07-29T15:34:13.622Z,29.10
2022-07-29T15:36:56.026Z,29.00
2022-07-29T15:39:23.558Z,28.80
2022-07-29T15:41:50.934Z,28.70
2022-07-29T15:44:18.334Z,28.60
2022-07-29T15:47:04.050Z,28.40
2022-07-29T15:49:47.463Z,28.40
2022-07-29T15:52:25.693Z,28.30
2022-07-29T15:54:56.742Z,28.30
2022-07-29T15:57:24.558Z,28.30
2022-07-29T15:59:51.990Z,28.30
2022-07-29T16:02:18.816Z,28.10
2022-07-29T16:04:45.595Z,28.10
2022-07-29T16:07:12.602Z,28.00
2022-07-29T16:09:41.407Z,28.00
2022-07-29T16:12:14.616Z,27.90
2022-07-29T16:14:49.617Z,27.80
2022-07-29T16:17:17.039Z,27.70
2022-07-29T16:19:46.286Z,27.60
2022-07-29T16:22:13.062Z,27.50
2022-07-29T16:24:41.503Z,27.40
2022-07-29T16:27:08.583Z,27.30
2022-07-29T16:29:37.024Z,27.30
2022-07-29T16:32:05.048Z,27.20
2022-07-29T16:34:31.795Z,27.20
2022-07-29T16:36:59.127Z,27.20
2022-07-29T16:39:26.249Z,27.10
2022-07-29T16:41:58.307Z,27.10
2022-07-29T16:44:27.440Z,27.10
2022-07-29T16:46:56.191Z,27.00
2022-07-29T16:49:26.210Z,27.00
2022-07-29T16:51:54.033Z,26.80
2022-07-29T16:54:20.996Z,26.70
2022-07-29T16:56:47.727Z,26.60
2022-07-29T16:59:14.824Z,26.60
2022-07-29T17:01:41.822Z,26.50
2022-07-29T17:04:11.021Z,26.30
2022-07-29T17:06:40.056Z,26.30
2022-07-29T17:09:08.113Z,26.10
2022-07-29T17:11:51.573Z,26.10
2022-07-29T17:14:25.924Z,26.00
2022-07-29T17:17:02.079Z,26.00
2022-07-29T17:19:30.863Z,25.90
2022-07-29T17:22:06.731Z,25.90
2022-07-29T17:24:38.136Z,25.80
2022-07-29T17:27:05.907Z,25.80
2022-07-29T17:29:32.824Z,25.70
2022-07-29T17:32:00.251Z,25.70
2022-07-29T17:34:26.931Z,25.70
2022-07-29T17:36:53.753Z,25.60
2022-07-29T17:39:21.858Z,25.60
2022-07-29T17:41:48.894Z,25.50
2022-07-29T17:44:15.615Z,25.50
2022-07-29T17:46:42.796Z,25.40
2022-07-29T17:49:09.715Z,25.30
2022-07-29T17:51:36.423Z,25.20
2022-07-29T17:54:04.535Z,25.10
2022-07-29T17:56:31.497Z,25.10
2022-07-29T17:59:01.109Z,24.90
2022-07-29T18:01:28.739Z,24.80
2022-07-29T18:03:59.848Z,24.80
2022-07-29T18:06:27.113Z,24.70
2022-07-29T18:08:55.460Z,24.60
2022-07-29T18:11:23.047Z,24.60
2022-07-29T18:13:49.781Z,24.50
2022-07-29T18:16:16.842Z,24.40
2022-07-29T18:18:44.510Z,24.30
2022-07-29T18:21:11.291Z,24.30
2022-07-29T18:23:39.492Z,24.20
2022-07-29T18:26:06.285Z,24.10
2022-07-29T18:28:33.244Z,24.00
2022-07-29T18:31:01.002Z,23.90
2022-07-29T18:33:28.146Z,23.90
2022-07-29T18:36:10.734Z,23.90
2022-07-29T18:38:40.053Z,23.80
2022-07-29T18:41:07.112Z,23.80
2022-07-29T18:43:34.241Z,23.70
2022-07-29T18:46:01.798Z,23.60
2022-07-29T18:48:29.612Z,23.60
2022-07-29T18:50:56.402Z,23.50
2022-07-29T18:53:24.752Z,23.50
2022-07-29T18:55:51.781Z,23.40
2022-07-29T18:58:23.123Z,23.30
2022-07-29T19:00:52.816Z,23.30
2022-07-29T19:03:21.762Z,23.20
2022-07-29T19:05:51.857Z,23.10
2022-07-29T19:08:19.217Z,23.10
2022-07-29T19:10:46.201Z,23.00
2022-07-29T19:13:13.473Z,22.90
2022-07-29T19:15:40.850Z,22.90
2022-07-29T19:18:07.604Z,22.80
2022-07-29T19:20:34.330Z,22.80
2022-07-29T19:23:01.882Z,22.60
2022-07-29T19:25:31.216Z,22.60
2022-07-29T19:28:02.661Z,22.50
2022-07-29T19:30:30.229Z,22.40
2022-07-29T19:32:59.278Z,22.30
2022-07-29T19:35:31.490Z,22.20
2022-07-29T19:37:59.332Z,22.20
2022-07-29T19:40:26.475Z,22.10
2022-07-29T19:42:56.709Z,22.00
2022-07-29T19:45:26.841Z,21.90
2022-07-29T19:47:59.019Z,21.80
2022-07-29T19:50:30.666Z,21.70
2022-07-29T19:52:58.196Z,21.70
2022-07-29T19:55:25.143Z,21.60
2022-07-29T19:57:52.938Z,21.40
2022-07-29T20:00:21.043Z,21.40
2022-07-29T20:02:48.112Z,21.30
2022-07-29T20:05:16.032Z,21.20
2022-07-29T20:07:42.835Z,21.10
2022-07-29T20:10:12.400Z,21.00
2022-07-29T20:12:39.667Z,20.90
2022-07-29T20:15:08.887Z,20.80
2022-07-29T20:17:43.486Z,20.80
2022-07-29T20:20:10.782Z,20.70
2022-07-29T20:22:37.880Z,20.60
2022-07-29T20:25:06.964Z,20.50
2022-07-29T20:27:36.985Z,20.50
2022-07-29T20:30:03.984Z,20.40
2022-07-29T20:32:31.154Z,20.30
2022-07-29T20:34:58.188Z,20.30
2022-07-29T20:37:24.934Z,20.30
2022-07-29T20:39:51.884Z,20.20
2022-07-29T20:42:18.881Z,20.20
2022-07-29T20:44:46.137Z,20.20
2022-07-29T20:47:13.066Z,20.10
2022-07-29T20:49:39.975Z,20.00
2022-07-29T20:52:06.900Z,20.00
2022-07-29T20:54:34.583Z,20.00
2022-07-29T20:57:01.851Z,19.90
2022-07-29T20:59:28.862Z,19.90
2022-07-29T21:01:56.055Z,19.90
2022-07-29T21:04:23.211Z,19.90
2022-07-29T21:06:59.570Z,19.90
2022-07-29T21:09:26.613Z,19.90
2022-07-29T21:11:53.319Z,19.90
2022-07-29T21:14:43.437Z,19.80
2022-07-29T21:17:10.659Z,19.80
2022-07-29T21:19:37.446Z,19.80
2022-07-29T21:22:04.178Z,19.80
2022-07-29T21:24:32.768Z,19.80
2022-07-29T21:27:21.360Z,19.70
2022-07-29T21:29:48.835Z,19.70
2022-07-29T21:32:27.500Z,19.70
2022-07-29T21:34:58.265Z,19.70
2022-07-29T21:37:25.314Z,19.60
2022-07-29T21:39:52.047Z,19.60
2022-07-29T21:42:18.949Z,19.60
2022-07-29T21:44:45.827Z,19.60
2022-07-29T21:47:12.629Z,19.50
2022-07-29T21:49:39.848Z,19.50
2022-07-29T21:52:08.169Z,19.50
2022-07-29T21:54:36.783Z,19.40
2022-07-29T21:57:04.634Z,19.40
2022-07-29T21:59:32.034Z,19.30
2022-07-29T22:02:01.178Z,19.30
2022-07-29T22:04:29.270Z,19.30
2022-07-29T22:06:57.079Z,19.30
2022-07-29T22:09:24.989Z,19.30
2022-07-29T22:11:52.190Z,19.30
2022-07-29T22:14:19.430Z,19.20
2022-07-29T22:16:47.606Z,19.20
2022-07-29T22:19:15.143Z,19.20
2022-07-29T22:21:43.590Z,19.10
2022-07-29T22:24:11.218Z,19.10
2022-07-29T22:26:38.743Z,19.10
2022-07-29T22:29:09.647Z,19.00
2022-07-29T22:31:36.750Z,19.00
2022-07-29T22:34:04.478Z,19.00
2022-07-29T22:36:31.192Z,19.00
2022-07-29T22:38:58.539Z,18.90
2022-07-29T22:41:25.743Z,18.90
2022-07-29T22:43:55.751Z,18.80
2022-07-29T22:46:26.220Z,18.90
2022-07-29T22:48:53.428Z,18.90
2022-07-29T22:51:20.435Z,18.80
2022-07-29T22:53:47.238Z,18.80
2022-07-29T22:56:15.005Z,18.80
2022-07-29T22:58:43.254Z,18.80
2022-07-29T23:01:10.195Z,18.80
2022-07-29T23:03:39.485Z,18.80
2022-07-29T23:06:07.494Z,18.70
2022-07-29T23:08:34.324Z,18.70
2022-07-29T23:11:01.197Z,18.70
2022-07-29T23:13:28.933Z,18.70
2022-07-29T23:15:56.537Z,18.70
2022-07-29T23:18:23.613Z,18.60
2022-07-29T23:20:53.931Z,18.60
2022-07-29T23:23:20.815Z,18.60
2022-07-29T23:25:47.971Z,18.60
2022-07-29T23:28:17.283Z,18.60
2022-07-29T23:30:47.556Z,18.60
2022-07-29T23:33:14.666Z,18.50
2022-07-29T23:35:41.680Z,18.60
2022-07-29T23:38:09.472Z,18.50
2022-07-29T23:40:37.417Z,18.50
2022-07-29T23:43:08.590Z,18.50
2022-07-29T23:45:42.411Z,18.50
2022-07-29T23:48:10.141Z,18.50
2022-07-29T23:50:37.167Z,18.50
2022-07-29T23:53:04.182Z,18.40
2022-07-29T23:55:37.065Z,18.40
2022-07-29T23:58:05.040Z,18.40
